Time;durP1;ratioP1;P1;durP2;ratioP2;P2;SDS_P1;SDS_P2;PMS_P1;PMS_P2;Temp;Humidity;BMP_temperature;BMP_pressure;BME280_temperature;BME280_humidity;BME280_pressure;Samples;Min_cycle;Max_cycle;Signal;HPM_P1;HPM_P2
2021/06/09 00:01:17;;;;;;;4.25;1.40;;;17.60;93.00;;;;;;5129318;27;20135;-78
2021/06/09 00:03:43;;;;;;;4.93;1.70;;;17.60;93.20;;;;;;5112446;28;20059;-77
2021/06/09 00:06:08;;;;;;;2.95;1.40;;;17.50;93.30;;;;;;5113047;28;20042;-79
2021/06/09 00:08:34;;;;;;;5.35;1.60;;;17.50;93.40;;;;;;5095598;28;20453;-79
2021/06/09 00:11:00;;;;;;;2.47;1.58;;;17.50;93.50;;;;;;5113712;28;20035;-79
2021/06/09 00:13:29;;;;;;;4.50;1.80;;;17.40;93.60;;;;;;5096031;28;20076;-78
2021/06/09 00:15:57;;;;;;;3.45;2.05;;;17.40;93.70;;;;;;5112070;28;20536;-76
2021/06/09 00:18:23;;;;;;;5.40;1.60;;;17.30;93.70;;;;;;5112612;28;20031;-77
2021/06/09 00:20:49;;;;;;;2.50;1.55;;;17.30;93.80;;;;;;5112483;28;20031;-80
2021/06/09 00:23:17;;;;;;;3.63;1.92;;;17.20;94.00;;;;;;5114296;28;20066;-77
2021/06/09 00:25:49;;;;;;;2.60;1.60;;;17.20;94.20;;;;;;5113957;27;20027;-77
2021/06/09 00:28:14;;;;;;;4.70;2.03;;;17.10;94.30;;;;;;5112881;28;20115;-78
2021/06/09 00:30:40;;;;;;;2.75;1.52;;;17.10;94.40;;;;;;5112973;28;20069;-78
2021/06/09 00:33:06;;;;;;;5.03;1.50;;;17.10;94.50;;;;;;5110665;28;20047;-78
2021/06/09 00:35:32;;;;;;;2.78;1.88;;;17.20;94.50;;;;;;5110204;28;20391;-78
2021/06/09 00:37:58;;;;;;;3.40;1.88;;;17.10;94.50;;;;;;5113907;28;20401;-78
2021/06/09 00:40:24;;;;;;;2.70;1.58;;;17.10;94.60;;;;;;5112325;28;20072;-78
2021/06/09 00:43:08;;;;;;;4.57;1.48;;;17.00;94.70;;;;;;5112658;28;20462;-78
2021/06/09 00:45:36;;;;;;;1.95;1.38;;;17.00;95.10;;;;;;5111181;28;20130;-76
2021/06/09 00:48:03;;;;;;;2.45;1.65;;;16.90;94.90;;;;;;5109590;28;20028;-79
2021/06/09 00:50:29;;;;;;;3.58;1.50;;;16.90;95.20;;;;;;5127640;27;20026;-79
2021/06/09 00:53:26;;;;;;;3.05;1.10;;;16.90;95.00;;;;;;5112812;28;20020;-78
2021/06/09 00:55:40;;;;;;;2.33;1.30;;;16.90;95.10;;;;;;5111870;28;20481;-78
2021/06/09 00:58:06;;;;;;;3.17;1.30;;;16.90;95.20;;;;;;5110454;28;20052;-79
2021/06/09 01:00:32;;;;;;;2.28;1.38;;;16.90;95.30;;;;;;5113235;28;20076;-78
2021/06/09 01:02:58;;;;;;;1.50;1.00;;;16.90;95.40;;;;;;5112109;28;20395;-79
2021/06/09 01:05:23;;;;;;;2.22;1.17;;;17.00;95.50;;;;;;5110636;28;20457;-78
2021/06/09 01:07:49;;;;;;;3.17;1.20;;;17.00;95.60;;;;;;5109336;28;20084;-79
2021/06/09 01:10:15;;;;;;;1.83;1.10;;;17.00;95.60;;;;;;5108803;28;20354;-79
2021/06/09 01:12:41;;;;;;;1.70;1.00;;;17.10;95.70;;;;;;5108733;28;20080;-78
2021/06/09 01:15:07;;;;;;;1.27;1.08;;;17.20;95.70;;;;;;5108621;28;20024;-79
2021/06/09 01:17:33;;;;;;;3.42;1.10;;;17.30;95.70;;;;;;5092382;28;20020;-78
2021/06/09 01:20:00;;;;;;;1.40;1.10;;;17.30;95.60;;;;;;5108594;28;20031;-77
2021/06/09 01:22:25;;;;;;;1.67;0.90;;;17.40;95.60;;;;;;5090538;28;20024;-78
2021/06/09 01:24:51;;;;;;;1.55;1.10;;;17.50;95.60;;;;;;5090733;28;20028;-79
2021/06/09 01:27:21;;;;;;;1.45;0.90;;;17.60;95.50;;;;;;5124358;27;20039;-77
2021/06/09 01:29:47;;;;;;;2.50;0.98;;;17.70;95.50;;;;;;5109500;28;20027;-78
2021/06/09 01:32:13;;;;;;;2.78;0.90;;;17.70;95.40;;;;;;5095913;28;20024;-78
2021/06/09 01:34:38;;;;;;;2.70;1.10;;;17.80;95.40;;;;;;5114879;28;20047;-79
2021/06/09 01:37:04;;;;;;;1.63;0.95;;;17.80;95.30;;;;;;5113367;28;20061;-79
2021/06/09 01:39:30;;;;;;;1.05;0.88;;;17.90;95.30;;;;;;5147858;27;20024;-77
2021/06/09 01:41:56;;;;;;;0.98;0.77;;;17.90;95.30;;;;;;5132533;27;20118;-79
2021/06/09 01:44:22;;;;;;;0.98;0.75;;;17.80;95.20;;;;;;5131517;27;20439;-77
2021/06/09 01:46:48;;;;;;;1.50;0.90;;;17.80;95.20;;;;;;5147718;27;20115;-80
2021/06/09 01:49:15;;;;;;;1.30;0.98;;;17.80;95.20;;;;;;5112408;28;20445;-79
2021/06/09 01:51:41;;;;;;;2.42;1.23;;;17.80;95.30;;;;;;5095729;28;20080;-77
2021/06/09 01:54:09;;;;;;;1.55;1.00;;;17.80;95.30;;;;;;5111568;28;20047;-79
2021/06/09 01:56:35;;;;;;;2.45;0.90;;;17.70;95.40;;;;;;5112860;28;20039;-78
2021/06/09 01:59:13;;;;;;;1.40;1.08;;;17.70;95.70;;;;;;5114039;28;20047;-77
2021/06/09 02:01:40;;;;;;;1.50;1.10;;;17.70;95.60;;;;;;5112511;28;20028;-79
2021/06/09 02:04:08;;;;;;;2.88;1.40;;;17.70;95.60;;;;;;5112205;28;20031;-78
2021/06/09 02:06:41;;;;;;;1.38;0.93;;;17.60;95.70;;;;;;5112089;28;20039;-79
2021/06/09 02:09:07;;;;;;;1.63;1.17;;;17.60;95.80;;;;;;5113469;28;20032;-79
2021/06/09 02:11:32;;;;;;;2.53;1.00;;;17.60;95.80;;;;;;5115170;28;20104;-78
2021/06/09 02:13:59;;;;;;;1.40;0.90;;;17.60;95.80;;;;;;5113990;28;20095;-79
2021/06/09 02:16:32;;;;;;;1.85;0.93;;;17.60;95.80;;;;;;5130591;27;20027;-78
2021/06/09 02:18:57;;;;;;;1.08;0.90;;;17.60;95.80;;;;;;5113806;28;20541;-77
2021/06/09 02:21:23;;;;;;;1.33;1.05;;;17.60;95.80;;;;;;5112450;28;20201;-78
2021/06/09 02:23:49;;;;;;;1.27;0.90;;;17.60;95.80;;;;;;5095167;28;20143;-77
2021/06/09 02:26:15;;;;;;;1.48;1.00;;;17.60;95.80;;;;;;5129011;27;20050;-78
2021/06/09 02:28:42;;;;;;;2.03;1.23;;;17.60;95.90;;;;;;5114605;28;20031;-79
2021/06/09 02:31:08;;;;;;;1.40;0.80;;;17.60;95.90;;;;;;5096888;28;20077;-77
2021/06/09 02:33:35;;;;;;;1.20;1.00;;;17.60;95.90;;;;;;5114247;28;20028;-78
2021/06/09 02:36:01;;;;;;;0.70;0.70;;;17.60;95.90;;;;;;5112830;28;20023;-79
2021/06/09 02:38:27;;;;;;;1.85;1.20;;;17.60;95.90;;;;;;5111310;28;20023;-77
2021/06/09 02:40:56;;;;;;;1.75;1.17;;;17.60;95.80;;;;;;5110801;28;20028;-78
2021/06/09 02:43:22;;;;;;;1.38;0.93;;;17.50;95.80;;;;;;5111665;28;20019;-79
2021/06/09 02:45:53;;;;;;;2.35;1.05;;;17.50;96.00;;;;;;5112168;27;20035;-79
2021/06/09 02:48:25;;;;;;;1.50;0.98;;;17.40;96.10;;;;;;5111773;28;20031;-77
2021/06/09 02:50:51;;;;;;;1.38;0.98;;;17.30;96.10;;;;;;5110792;28;20034;-79
2021/06/09 02:53:17;;;;;;;1.17;0.98;;;17.30;96.20;;;;;;5111572;28;20378;-78
2021/06/09 02:56:07;;;;;;;1.50;0.82;;;17.20;96.30;;;;;;5111663;28;20027;-78
2021/06/09 02:58:57;;;;;;;0.98;0.80;;;17.20;96.50;;;;;;5109850;28;20062;-79
2021/06/09 03:01:47;;;;;;;1.23;0.90;;;17.10;96.50;;;;;;5109781;28;20030;-79
2021/06/09 03:04:25;;;;;;;0.82;0.75;;;17.10;96.60;;;;;;5110294;28;20388;-77
2021/06/09 03:07:04;;;;;;;1.83;0.82;;;17.10;96.70;;;;;;5111603;27;20038;-76
2021/06/09 03:10:05;;;;;;;0.75;0.70;;;17.10;96.70;;;;;;5111926;28;20500;-77
2021/06/09 03:13:09;;;;;;;1.80;0.88;;;17.10;96.90;;;;;;5106796;28;20034;-78
2021/06/09 03:16:06;;;;;;;1.23;0.80;;;17.10;96.90;;;;;;5108977;28;20031;-78
2021/06/09 03:18:45;;;;;;;1.73;0.98;;;17.10;96.90;;;;;;5094087;28;20031;-77
2021/06/09 03:21:40;;;;;;;1.40;1.00;;;17.10;96.90;;;;;;5110202;28;20393;-78
2021/06/09 03:24:18;;;;;;;1.00;0.90;;;17.00;97.00;;;;;;5103431;28;20027;-79
2021/06/09 03:26:55;;;;;;;0.70;0.70;;;17.00;97.10;;;;;;5109080;28;20031;-79
2021/06/09 03:29:24;;;;;;;1.10;0.90;;;17.00;97.10;;;;;;5111350;28;20033;-78
2021/06/09 03:31:55;;;;;;;2.00;1.00;;;17.00;97.20;;;;;;5109259;28;20131;-79
2021/06/09 03:34:25;;;;;;;0.85;0.70;;;17.00;97.30;;;;;;5111140;28;20032;-78
2021/06/09 03:36:55;;;;;;;0.93;0.70;;;17.00;97.50;;;;;;5109575;28;20089;-78
2021/06/09 03:39:23;;;;;;;1.52;0.70;;;16.90;97.50;;;;;;5109644;28;20363;-78
2021/06/09 03:41:58;;;;;;;1.50;0.60;;;16.90;97.60;;;;;;5109642;28;20428;-80
2021/06/09 03:44:45;;;;;;;1.60;0.90;;;16.90;97.80;;;;;;5110883;28;20023;-79
2021/06/09 03:47:13;;;;;;;1.10;0.98;;;16.80;97.90;;;;;;5110096;28;20024;-77
2021/06/09 03:49:40;;;;;;;1.80;0.60;;;16.90;97.90;;;;;;5111173;28;20416;-78
2021/06/09 03:52:08;;;;;;;0.60;0.60;;;16.90;98.00;;;;;;5109355;28;20072;-79
2021/06/09 03:54:35;;;;;;;0.80;0.80;;;16.90;98.00;;;;;;5109324;28;20031;-77
2021/06/09 03:57:02;;;;;;;1.58;0.93;;;17.00;98.00;;;;;;5110743;28;20015;-79
2021/06/09 03:59:28;;;;;;;1.73;1.00;;;17.00;98.30;;;;;;5110127;28;20048;-77
2021/06/09 04:01:56;;;;;;;1.77;0.73;;;17.10;98.10;;;;;;5109203;28;20046;-76
2021/06/09 04:04:22;;;;;;;2.88;0.80;;;17.00;98.10;;;;;;5112402;28;20032;-76
2021/06/09 04:06:52;;;;;;;1.50;0.70;;;17.00;98.20;;;;;;5110717;28;20369;-78
2021/06/09 04:09:21;;;;;;;1.38;0.90;;;17.10;98.20;;;;;;5112119;28;20437;-79
2021/06/09 04:11:51;;;;;;;1.00;0.70;;;17.20;98.20;;;;;;5111735;28;20027;-79
2021/06/09 04:14:21;;;;;;;0.85;0.60;;;17.20;98.20;;;;;;5109123;28;20480;-78
2021/06/09 04:16:47;;;;;;;0.95;0.60;;;17.20;98.20;;;;;;5112065;28;20110;-79
2021/06/09 04:19:15;;;;;;;0.80;0.60;;;17.30;98.30;;;;;;5111545;28;20031;-78
2021/06/09 04:21:40;;;;;;;1.00;0.70;;;17.30;98.30;;;;;;5112965;28;20535;-76
2021/06/09 04:24:07;;;;;;;2.65;0.60;;;17.30;98.40;;;;;;5111895;28;20028;-78
2021/06/09 04:26:38;;;;;;;2.28;1.13;;;17.40;98.40;;;;;;5113279;28;20031;-78
2021/06/09 04:29:04;;;;;;;2.20;0.80;;;17.40;98.50;;;;;;5112904;28;20446;-78
2021/06/09 04:31:32;;;;;;;1.08;0.95;;;17.50;98.50;;;;;;5112763;28;20016;-78
2021/06/09 04:33:58;;;;;;;2.25;0.65;;;17.50;98.60;;;;;;5109807;28;20027;-79
2021/06/09 04:36:24;;;;;;;0.82;0.60;;;17.60;98.50;;;;;;5091973;28;20020;-77
2021/06/09 04:38:50;;;;;;;1.45;0.85;;;17.70;98.50;;;;;;5108341;28;20085;-79
2021/06/09 04:41:18;;;;;;;1.17;0.63;;;17.70;98.40;;;;;;5142303;27;20024;-79
2021/06/09 04:43:44;;;;;;;2.58;0.90;;;17.70;98.40;;;;;;5107942;28;20108;-79
2021/06/09 04:46:16;;;;;;;1.80;0.80;;;17.80;98.40;;;;;;5108754;28;20361;-79
2021/06/09 04:48:53;;;;;;;0.95;0.77;;;17.80;98.30;;;;;;5107823;28;20031;-78
2021/06/09 04:51:19;;;;;;;0.60;0.60;;;17.90;98.30;;;;;;5126888;27;20031;-79
2021/06/09 04:53:45;;;;;;;0.90;0.68;;;17.90;98.20;;;;;;5109178;28;20026;-77
2021/06/09 04:56:10;;;;;;;1.27;0.77;;;18.00;98.20;;;;;;5125066;27;20020;-78
2021/06/09 04:58:36;;;;;;;0.98;0.70;;;18.00;98.20;;;;;;5124620;27;20142;-78
2021/06/09 05:01:02;;;;;;;4.45;0.70;;;18.00;98.20;;;;;;5091085;28;20032;-78
2021/06/09 05:03:27;;;;;;;0.95;0.57;;;18.00;98.20;;;;;;5142249;27;20035;-78
2021/06/09 05:05:53;;;;;;;0.80;0.55;;;18.00;98.20;;;;;;5124457;27;20038;-77
2021/06/09 05:08:19;;;;;;;1.08;0.55;;;18.10;98.20;;;;;;5107866;28;20035;-78
2021/06/09 05:10:46;;;;;;;0.50;0.50;;;18.10;98.20;;;;;;5108527;28;20032;-79
2021/06/09 05:13:24;;;;;;;1.08;0.55;;;18.20;98.20;;;;;;5110156;28;20488;-79
2021/06/09 05:15:54;;;;;;;0.80;0.60;;;18.20;98.10;;;;;;5110417;28;20031;-78
2021/06/09 05:18:25;;;;;;;;;;;18.30;98.10;;;;;;5110104;28;20020;-79
2021/06/09 05:20:52;;;;;;;0.63;0.63;;;18.40;98.00;;;;;;5109312;28;19904;-79
2021/06/09 05:23:24;;;;;;;0.50;0.50;;;18.50;97.80;;;;;;5126196;27;20035;-79
2021/06/09 05:25:52;;;;;;;1.35;0.95;;;18.50;97.70;;;;;;5110676;28;20651;-79
2021/06/09 05:28:20;;;;;;;0.75;0.50;;;18.60;97.60;;;;;;5110312;28;20031;-78
2021/06/09 05:30:47;;;;;;;0.93;0.55;;;18.70;97.50;;;;;;5092079;28;20384;-78
2021/06/09 05:33:13;;;;;;;3.97;0.57;;;18.70;97.40;;;;;;5092274;28;20028;-78
2021/06/09 05:35:38;;;;;;;0.75;0.50;;;18.70;97.40;;;;;;5108946;28;20126;-79
2021/06/09 05:38:05;;;;;;;1.02;0.57;;;18.70;97.40;;;;;;5108493;28;20028;-79
2021/06/09 05:40:31;;;;;;;3.95;0.68;;;18.70;97.30;;;;;;5109162;28;20206;-79
2021/06/09 05:42:57;;;;;;;1.55;0.47;;;18.80;97.20;;;;;;5109296;28;20016;-80
2021/06/09 05:45:31;;;;;;;3.72;0.73;;;18.80;97.20;;;;;;5109192;28;20088;-79
2021/06/09 05:47:58;;;;;;;1.05;0.60;;;18.80;97.10;;;;;;5107728;28;20036;-78
2021/06/09 05:50:27;;;;;;;2.67;0.65;;;18.80;97.10;;;;;;5126300;27;20031;-77
2021/06/09 05:52:56;;;;;;;1.92;0.57;;;18.90;97.10;;;;;;5108793;28;20019;-78
2021/06/09 05:55:24;;;;;;;;;;;18.90;97.00;;;;;;5110567;28;20494;-78
2021/06/09 05:58:02;;;;;;;1.48;0.55;;;18.90;97.00;;;;;;5110809;28;19926;-79
2021/06/09 06:00:29;;;;;;;0.47;0.47;;;18.90;97.10;;;;;;5107185;28;20036;-79
2021/06/09 06:02:55;;;;;;;0.38;0.35;;;18.90;96.90;;;;;;5108445;28;20031;-78
2021/06/09 06:05:23;;;;;;;0.47;0.40;;;18.90;97.00;;;;;;5108729;28;20031;-79
2021/06/09 06:07:50;;;;;;;0.50;0.50;;;18.80;97.00;;;;;;5107847;28;20044;-79
2021/06/09 06:10:19;;;;;;;1.25;0.60;;;18.80;97.00;;;;;;5109197;28;20058;-79
2021/06/09 06:12:47;;;;;;;0.70;0.50;;;18.80;97.10;;;;;;5108252;28;20020;-80
2021/06/09 06:15:13;;;;;;;1.65;0.57;;;18.70;97.10;;;;;;5108224;28;20031;-79
2021/06/09 06:17:44;;;;;;;0.70;0.40;;;18.70;97.20;;;;;;5108370;28;20028;-73
2021/06/09 06:20:20;;;;;;;2.38;0.70;;;18.60;97.30;;;;;;5111791;28;20023;-79
2021/06/09 06:22:49;;;;;;;3.25;0.60;;;18.60;97.30;;;;;;5094465;28;20038;-80
2021/06/09 06:25:21;;;;;;;1.30;0.68;;;18.60;97.40;;;;;;5110677;28;20024;-79
2021/06/09 06:27:49;;;;;;;2.38;0.80;;;18.70;97.40;;;;;;5111322;28;20034;-81
2021/06/09 06:30:17;;;;;;;1.60;0.32;;;18.70;97.40;;;;;;5112279;28;20032;-80
2021/06/09 06:32:45;;;;;;;1.83;0.52;;;18.70;97.40;;;;;;5114419;28;20072;-78
2021/06/09 06:35:16;;;;;;;0.50;0.50;;;18.70;97.30;;;;;;5112471;28;20088;-80
2021/06/09 06:37:43;;;;;;;1.25;0.43;;;18.80;97.30;;;;;;5112815;28;20045;-81
2021/06/09 06:40:10;;;;;;;0.40;0.40;;;18.80;97.30;;;;;;5111566;28;20039;-79
2021/06/09 06:42:36;;;;;;;2.47;0.45;;;18.90;97.30;;;;;;5112123;28;20034;-78
2021/06/09 06:45:04;;;;;;;0.77;0.40;;;18.90;97.20;;;;;;5113622;28;20112;-81
2021/06/09 06:47:30;;;;;;;3.80;0.70;;;19.00;97.00;;;;;;5094187;28;20035;-79
2021/06/09 06:49:57;;;;;;;0.43;0.40;;;19.10;97.00;;;;;;5112471;28;20498;-79
2021/06/09 06:52:32;;;;;;;1.05;0.57;;;19.10;96.90;;;;;;5110984;28;20023;-78
2021/06/09 06:54:59;;;;;;;0.98;0.38;;;19.20;96.90;;;;;;5112074;28;20469;-79
2021/06/09 06:57:29;;;;;;;0.65;0.50;;;19.30;96.70;;;;;;5110785;28;20029;-79
2021/06/09 06:59:56;;;;;;;5.28;0.30;;;19.40;96.60;;;;;;5112775;28;20405;-80
2021/06/09 07:02:22;;;;;;;4.07;0.32;;;19.50;96.50;;;;;;5110871;28;20027;-79
2021/06/09 07:04:48;;;;;;;0.52;0.38;;;19.60;96.30;;;;;;5112611;28;20486;-80
2021/06/09 07:07:14;;;;;;;0.10;0.10;;;19.70;96.10;;;;;;5111348;28;20035;-79
2021/06/09 07:09:41;;;;;;;2.08;0.20;;;19.70;95.80;;;;;;5111218;28;20047;-80
2021/06/09 07:12:07;;;;;;;0.93;0.30;;;19.80;95.50;;;;;;5112340;28;20477;-78
2021/06/09 07:14:35;;;;;;;1.13;0.30;;;19.80;95.40;;;;;;5110409;28;20027;-80
2021/06/09 07:17:01;;;;;;;0.80;0.28;;;19.80;95.30;;;;;;5110882;28;20069;-80
2021/06/09 07:19:27;;;;;;;1.27;0.30;;;19.80;95.40;;;;;;5127270;27;20545;-79
2021/06/09 07:21:54;;;;;;;1.10;0.30;;;19.80;95.40;;;;;;5111123;28;20027;-79
2021/06/09 07:24:20;;;;;;;2.35;0.57;;;19.80;95.50;;;;;;5111762;28;20066;-79
2021/06/09 07:26:48;;;;;;;0.47;0.30;;;19.90;95.40;;;;;;5112009;28;20480;-80
2021/06/09 07:29:22;;;;;;;1.95;0.35;;;19.90;95.30;;;;;;5126318;27;20367;-79
2021/06/09 07:31:49;;;;;;;5.75;0.60;;;19.90;95.20;;;;;;5110937;28;20023;-79
2021/06/09 07:34:15;;;;;;;2.42;0.40;;;19.90;95.30;;;;;;5127614;27;20401;-80
2021/06/09 07:37:02;;;;;;;1.15;0.57;;;20.00;95.40;;;;;;5109211;28;20504;-81
2021/06/09 07:39:36;;;;;;;2.63;0.47;;;20.20;95.20;;;;;;5109891;28;20027;-80
2021/06/09 07:42:06;;;;;;;0.82;0.38;;;20.40;95.10;;;;;;5108244;28;20466;-80
2021/06/09 07:44:48;;;;;;;6.63;0.93;;;20.60;94.80;;;;;;5108190;28;20020;-81
2021/06/09 07:47:16;;;;;;;2.35;0.40;;;20.90;94.30;;;;;;5108189;28;20024;-80
2021/06/09 07:49:48;;;;;;;4.45;0.75;;;21.00;93.90;;;;;;5108296;28;20075;-78
2021/06/09 07:52:16;;;;;;;10.52;1.67;;;21.10;93.70;;;;;;5108147;28;20023;-80
2021/06/09 07:54:43;;;;;;;4.57;0.73;;;21.10;93.60;;;;;;5108585;28;20475;-80
2021/06/09 07:57:11;;;;;;;0.28;0.22;;;21.10;93.50;;;;;;5108114;28;20089;-80
2021/06/09 07:59:39;;;;;;;2.92;1.05;;;21.00;93.40;;;;;;5108821;28;20052;-80
2021/06/09 08:02:05;;;;;;;3.83;0.38;;;20.90;93.60;;;;;;5107697;28;20027;-80
2021/06/09 08:04:31;;;;;;;4.13;0.47;;;20.80;93.70;;;;;;5107770;28;20469;-80
2021/06/09 08:06:58;;;;;;;1.23;0.40;;;20.70;93.80;;;;;;5107172;28;20031;-80
2021/06/09 08:09:25;;;;;;;1.83;0.60;;;20.70;93.80;;;;;;5090774;28;20066;-80
2021/06/09 08:11:52;;;;;;;0.22;0.22;;;20.60;93.80;;;;;;5108330;28;20039;-77
2021/06/09 08:14:18;;;;;;;0.75;0.40;;;20.60;93.80;;;;;;5108576;28;20020;-77
2021/06/09 08:16:45;;;;;;;1.15;0.30;;;20.60;93.70;;;;;;5089542;28;20512;-78
2021/06/09 08:19:10;;;;;;;0.30;0.30;;;20.60;93.70;;;;;;5090195;28;20504;-78
2021/06/09 08:21:37;;;;;;;1.33;0.50;;;20.60;93.70;;;;;;5090326;28;20039;-78
2021/06/09 08:24:04;;;;;;;1.35;0.45;;;20.70;93.80;;;;;;5108564;28;20038;-77
2021/06/09 08:26:31;;;;;;;1.05;0.40;;;20.80;93.70;;;;;;5107144;27;20035;-77
2021/06/09 08:28:57;;;;;;;0.55;0.30;;;20.90;93.50;;;;;;5106990;28;20394;-77
2021/06/09 08:31:25;;;;;;;1.23;0.50;;;21.00;93.40;;;;;;5098366;28;20024;-77
2021/06/09 08:33:53;;;;;;;0.73;0.40;;;21.00;93.20;;;;;;5108288;28;20012;-78
2021/06/09 08:36:19;;;;;;;0.60;0.40;;;21.10;93.00;;;;;;5089794;28;20024;-78
2021/06/09 08:38:46;;;;;;;1.33;0.60;;;21.10;92.80;;;;;;5106368;28;20042;-78
2021/06/09 08:41:14;;;;;;;1.08;0.30;;;21.10;92.80;;;;;;5106015;28;20142;-77
2021/06/09 08:43:41;;;;;;;1.83;0.70;;;21.10;92.70;;;;;;5108046;28;20059;-77
2021/06/09 08:46:10;;;;;;;1.73;0.60;;;21.20;92.60;;;;;;5106530;28;20034;-78
2021/06/09 08:48:39;;;;;;;1.30;0.33;;;21.30;92.60;;;;;;5107751;28;20024;-77
2021/06/09 08:51:07;;;;;;;2.13;0.80;;;21.50;92.60;;;;;;5106089;28;20273;-78
2021/06/09 08:53:39;;;;;;;1.77;0.80;;;21.70;92.50;;;;;;5106088;28;20055;-78
2021/06/09 08:56:05;;;;;;;0.80;0.50;;;22.10;92.20;;;;;;5107763;28;20027;-78
2021/06/09 08:58:31;;;;;;;2.70;0.50;;;22.40;91.80;;;;;;5107438;28;20493;-78
2021/06/09 09:00:58;;;;;;;1.65;0.60;;;22.70;91.30;;;;;;5072846;28;20494;-79
2021/06/09 09:03:24;;;;;;;1.92;0.95;;;22.90;90.70;;;;;;5107752;28;20024;-78
2021/06/09 09:05:49;;;;;;;6.63;2.15;;;23.00;90.20;;;;;;5108289;28;20043;-79
2021/06/09 09:08:24;;;;;;;2.10;0.80;;;23.00;90.00;;;;;;5107935;28;20140;-79
2021/06/09 09:10:50;;;;;;;1.52;0.70;;;22.90;89.20;;;;;;5108317;28;20028;-79
2021/06/09 09:13:16;;;;;;;2.50;0.88;;;22.80;88.60;;;;;;5110473;28;20047;-80
2021/06/09 09:15:42;;;;;;;1.10;0.77;;;22.60;88.90;;;;;;5108910;28;20035;-79
2021/06/09 09:18:08;;;;;;;2.33;0.75;;;22.60;89.20;;;;;;5110570;28;20029;-80
2021/06/09 09:20:42;;;;;;;3.15;0.93;;;22.70;89.50;;;;;;5107987;28;20020;-78
2021/06/09 09:23:17;;;;;;;1.25;0.47;;;22.60;88.80;;;;;;5109635;28;20019;-78
2021/06/09 09:25:43;;;;;;;4.63;1.67;;;22.50;89.20;;;;;;5105805;28;20016;-79
2021/06/09 09:28:20;;;;;;;2.42;0.90;;;22.70;89.60;;;;;;5109705;28;20477;-77
2021/06/09 09:30:46;;;;;;;1.08;0.70;;;23.00;90.10;;;;;;5108169;28;20093;-78
2021/06/09 09:33:21;;;;;;;1.35;0.70;;;23.40;89.20;;;;;;5108725;28;20098;-79
2021/06/09 09:35:53;;;;;;;4.22;1.35;;;23.90;88.40;;;;;;5107865;28;20058;-79
2021/06/09 09:38:31;;;;;;;5.50;0.95;;;24.20;86.70;;;;;;5108211;28;20027;-78
2021/06/09 09:41:02;;;;;;;3.00;1.13;;;24.20;84.20;;;;;;5109542;28;20023;-79
2021/06/09 09:43:54;;;;;;;3.15;1.52;;;24.00;83.70;;;;;;5108199;28;20023;-78
2021/06/09 09:46:30;;;;;;;0.80;0.52;;;23.70;83.40;;;;;;5088010;28;20671;-79
2021/06/09 09:48:58;;;;;;;1.27;0.60;;;23.50;83.80;;;;;;5107502;28;20023;-79
2021/06/09 09:51:26;;;;;;;3.50;0.80;;;23.40;84.60;;;;;;5108499;28;20108;-82
2021/06/09 09:53:57;;;;;;;1.13;0.60;;;23.30;84.60;;;;;;5097301;28;20384;-80
2021/06/09 09:56:27;;;;;;;6.25;1.58;;;23.20;84.70;;;;;;5113498;28;20107;-81
2021/06/09 09:58:59;;;;;;;5.35;0.77;;;23.10;85.30;;;;;;5113044;28;20053;-81
2021/06/09 10:01:27;;;;;;;1.75;0.70;;;23.20;85.80;;;;;;5114568;28;20381;-80
2021/06/09 10:03:55;;;;;;;3.22;0.77;;;23.30;85.90;;;;;;5096995;28;20031;-80
2021/06/09 10:06:27;;;;;;;0.57;0.50;;;23.50;85.40;;;;;;5114836;28;20022;-79
2021/06/09 10:08:55;;;;;;;1.50;1.20;;;23.70;85.60;;;;;;5112492;28;20049;-78
2021/06/09 10:11:22;;;;;;;6.68;1.95;;;24.00;84.50;;;;;;5124967;27;20034;-78
2021/06/09 10:13:49;;;;;;;3.85;1.55;;;24.10;84.20;;;;;;5113216;28;20019;-80
2021/06/09 10:16:25;;;;;;;0.52;0.50;;;24.20;83.30;;;;;;5113997;28;20016;-79
2021/06/09 10:19:00;;;;;;;0.60;0.40;;;24.20;82.70;;;;;;5109173;28;20023;-80
2021/06/09 10:21:26;;;;;;;0.60;0.43;;;24.20;83.00;;;;;;5111965;28;20023;-78
2021/06/09 10:23:59;;;;;;;4.32;0.82;;;24.20;82.10;;;;;;5111291;28;20469;-78
2021/06/09 10:26:25;;;;;;;0.75;0.50;;;24.40;82.40;;;;;;5112019;28;20034;-79
2021/06/09 10:29:08;;;;;;;1.20;0.68;;;25.00;81.30;;;;;;5112753;28;20031;-80
2021/06/09 10:31:47;;;;;;;0.60;0.47;;;25.70;80.70;;;;;;5113432;28;20099;-78
2021/06/09 10:34:12;;;;;;;0.55;0.35;;;26.40;79.00;;;;;;5112276;28;20031;-82
2021/06/09 10:36:42;;;;;;;0.32;0.32;;;27.00;76.20;;;;;;5112206;28;20028;-78
2021/06/09 10:39:09;;;;;;;2.05;0.50;;;27.30;73.70;;;;;;5112091;28;20016;-80
2021/06/09 10:41:39;;;;;;;1.27;0.68;;;27.30;72.60;;;;;;5113353;27;20031;-78
2021/06/09 10:44:05;;;;;;;2.80;0.57;;;27.30;72.40;;;;;;5113238;27;20032;-79
2021/06/09 10:46:33;;;;;;;1.45;0.70;;;27.70;72.50;;;;;;5112509;28;20035;-79
2021/06/09 10:49:01;;;;;;;0.57;0.30;;;28.30;70.60;;;;;;5112234;28;20143;-80
2021/06/09 10:51:28;;;;;;;1.67;0.45;;;28.30;68.50;;;;;;5112176;28;20015;-79
2021/06/09 10:53:54;;;;;;;0.50;0.50;;;28.00;67.90;;;;;;5095024;28;20024;-79
2021/06/09 10:56:22;;;;;;;0.73;0.63;;;27.60;67.80;;;;;;5112096;28;20062;-78
2021/06/09 10:58:48;;;;;;;2.47;0.98;;;27.40;69.00;;;;;;5112754;28;20135;-80
2021/06/09 11:01:14;;;;;;;1.85;0.55;;;28.10;69.60;;;;;;5094137;28;20051;-79
2021/06/09 11:03:46;;;;;;;4.15;1.60;;;28.80;67.50;;;;;;5111906;28;20027;-80
2021/06/09 11:06:12;;;;;;;1.73;0.70;;;29.10;66.60;;;;;;5110789;28;20038;-79
2021/06/09 11:08:39;;;;;;;2.33;1.02;;;29.50;65.60;;;;;;5111073;28;20107;-79
2021/06/09 11:11:17;;;;;;;0.98;0.75;;;29.40;64.20;;;;;;5113474;28;20069;-80
2021/06/09 11:13:46;;;;;;;2.20;0.47;;;28.90;63.20;;;;;;5112539;28;20076;-79
2021/06/09 11:16:17;;;;;;;0.90;0.50;;;28.20;63.40;;;;;;5110707;28;20119;-80
2021/06/09 11:18:45;;;;;;;0.70;0.70;;;27.70;64.50;;;;;;5110675;28;20024;-79
2021/06/09 11:21:22;;;;;;;0.57;0.50;;;27.60;65.80;;;;;;5110439;28;20084;-80
2021/06/09 11:23:48;;;;;;;5.38;1.45;;;27.70;65.90;;;;;;5112922;28;20377;-75
2021/06/09 11:26:26;;;;;;;1.10;0.70;;;28.10;66.50;;;;;;5109730;28;20027;-80
2021/06/09 11:28:52;;;;;;;0.90;0.60;;;28.40;64.90;;;;;;5110572;28;20026;-76
2021/06/09 11:31:24;;;;;;;1.23;0.65;;;28.50;64.30;;;;;;5121971;27;20024;-78
2021/06/09 11:34:01;;;;;;;0.60;0.57;;;28.40;63.60;;;;;;5111554;28;20429;-78
2021/06/09 11:36:31;;;;;;;5.50;2.00;;;28.30;63.50;;;;;;5111032;28;20099;-80
2021/06/09 11:39:06;;;;;;;3.83;0.80;;;28.20;63.50;;;;;;5108213;28;20031;-77
2021/06/09 11:41:36;;;;;;;2.92;0.80;;;28.20;63.50;;;;;;5112303;28;20160;-77
2021/06/09 11:44:02;;;;;;;1.45;1.20;;;28.10;63.70;;;;;;5110216;28;20084;-77
2021/06/09 11:46:30;;;;;;;1.17;0.82;;;28.20;63.50;;;;;;5110761;28;20028;-79
2021/06/09 11:49:11;;;;;;;1.33;1.10;;;28.30;63.40;;;;;;5090341;28;20109;-79
2021/06/09 11:51:43;;;;;;;3.22;2.20;;;28.40;63.50;;;;;;5091443;28;20023;-78
2021/06/09 11:54:15;;;;;;;4.47;2.22;;;28.70;63.10;;;;;;5099814;28;20022;-74
2021/06/09 11:56:42;;;;;;;1.52;1.20;;;28.70;62.20;;;;;;5110142;28;20055;-78
2021/06/09 11:59:39;;;;;;;1.02;0.88;;;28.50;62.40;;;;;;5111281;27;20052;-77
2021/06/09 12:02:10;;;;;;;0.70;0.70;;;28.30;62.50;;;;;;5110226;28;20050;-78
2021/06/09 12:04:42;;;;;;;1.05;0.90;;;27.90;62.60;;;;;;5107324;28;20023;-80
2021/06/09 12:07:19;;;;;;;2.00;1.10;;;27.60;63.00;;;;;;5111308;28;20038;-77
2021/06/09 12:09:45;;;;;;;0.93;0.93;;;27.40;63.70;;;;;;5110369;28;20671;-78
2021/06/09 12:12:12;;;;;;;1.67;1.15;;;27.80;64.30;;;;;;5110821;28;20094;-78
2021/06/09 12:14:40;;;;;;;2.03;1.02;;;28.10;63.90;;;;;;5110515;28;20041;-79
2021/06/09 12:17:14;;;;;;;1.55;0.88;;;28.60;64.10;;;;;;5109373;28;20530;-77
2021/06/09 12:19:45;;;;;;;6.50;1.13;;;29.10;62.70;;;;;;5110727;28;20147;-78
2021/06/09 12:22:18;;;;;;;1.05;0.95;;;29.10;61.60;;;;;;5110192;28;20585;-79
2021/06/09 12:25:01;;;;;;;3.88;1.17;;;28.70;61.40;;;;;;5110249;28;20028;-78
2021/06/09 12:27:27;;;;;;;1.13;1.00;;;28.30;62.10;;;;;;5110081;28;20053;-79
2021/06/09 12:29:53;;;;;;;4.43;1.02;;;28.10;62.10;;;;;;5109028;28;20024;-77
2021/06/09 12:32:21;;;;;;;2.55;1.02;;;27.80;62.40;;;;;;5109117;28;20031;-78
2021/06/09 12:34:54;;;;;;;1.60;1.20;;;27.60;63.50;;;;;;5109854;28;20492;-80
2021/06/09 12:37:21;;;;;;;4.22;1.40;;;27.40;63.00;;;;;;5109923;28;20011;-78
2021/06/09 12:39:57;;;;;;;1.77;1.20;;;27.30;63.40;;;;;;5109350;28;20031;-79
2021/06/09 12:42:23;;;;;;;1.20;1.10;;;27.30;63.90;;;;;;5110850;28;20019;-80
2021/06/09 12:44:49;;;;;;;2.92;1.30;;;27.40;64.00;;;;;;5109779;28;20043;-78
2021/06/09 12:47:36;;;;;;;1.45;1.20;;;27.60;63.80;;;;;;5107943;28;20038;-79
2021/06/09 12:50:22;;;;;;;1.48;1.20;;;27.40;63.80;;;;;;5107419;28;20057;-80
2021/06/09 12:52:52;;;;;;;2.17;1.67;;;27.40;63.80;;;;;;5111046;28;20019;-78
2021/06/09 12:55:24;;;;;;;2.95;1.10;;;27.20;63.90;;;;;;5109361;28;20087;-76
2021/06/09 12:57:53;;;;;;;11.73;2.05;;;27.00;64.40;;;;;;5107550;28;20019;-79
2021/06/09 13:00:35;;;;;;;5.57;2.53;;;26.80;64.50;;;;;;5108097;28;20032;-77